Aeroporto :
LOGIN :

Iscrizione | Disclaimer

   EN    FR    IT 

 










Sommario :    VFR   VFR Marginale   IFR   IFR Intensivo   IFR Molto Intensivo
Visibilità : 
Base nubi : 
>= 8 km
>= 3000ft
5 / 8 km
1000 / 3000 ft
1500m / 5 km
500 / 1000 ft
800 / 1500m
200 / 500 ft
< 800m
< 200 ft
Simboli :   Temporali  Nebbia  Neve Forte  Precipitazioni Forti  Vento > 20 kt
SIGMETs :   Varie  Temporali  Ghiacco  Turbolenza  Onda orograficha  Ceneri Vulcaniche






- Altitudine del aeroporto : 62 ft
- Codice IATA : TAN


GMTT - Tanger Ibn Batouta

ULTIMO METAR :
  • 072230Z 07004KT 9999 FEW026 12/10 Q1025 NOSIG

METARs OBSOLETI :
  • 072200Z 07004KT 9999 FEW026 13/11 Q1025 NOSIG
  • 072130Z 06003KT 030V090 9999 FEW026 13/11 Q1025 NOSIG
  • 072100Z 08004KT 9999 FEW026 13/11 Q1025 NOSIG
  • 072030Z 08003KT 010V100 9999 FEW026 13/11 Q1024 NOSIG
  • 072000Z 04004KT 010V080 9999 FEW026 14/11 Q1024 NOSIG

TAF TAF GMTT
Valido dal 07 a 18 ore il 09 a 00 ore UTC


071700Z 0718/0824 VRB02KT 8000 SCT026
PROB40 0722/0808 3000 BR



MetMap, La meteo Aeronautica in un colpo d'occhio ! - Copyright ORBIFLY Dicembre 2007 - Disclaimer

ORBIFLY MET'MAP TEAM :

Programmazione e sviluppo : Alexandra Zaïnal
Concezione : Baudouin d'Aumeries
Aiuto per la programmazione : Marc-Olivier Méhu
Supporto tecnico e logistico : Manuel Goepfert
Aiuto per la traduzione : Arnaldo La Scala

Contatto : metmap@orbifly.com




FONTI E CREDITI :

   NOAA